Terminal Aerodrome Forecast
Issued by NWS Cleveland, OH

Home | Current Version | Previous Version | Graphics & Text | Print | Product List | Glossary Off
Versions: 1 2 3 4 5 6 7 8 9 10 11 12 13 14 15 16 17 18

000
FTUS41 KCLE 010600 AAA
TAFYNG
TAF AMD
KYNG 010650Z 0107/0206 12004KT 3SM -SN OVC025
      TEMPO 0107/0110 1SM -SN OVC012
     FM011000 17005KT 1SM -SN OVC012
     FM011300 18005KT 1/2SM SN FZFG OVC006
     FM012200 23006KT 1 1/2SM -SN OVC010
     FM020200 24005KT 3SM -SN OVC015=

USA.gov is the U.S. government's official web portal to all federal, state and local government web resources and services.